Home   Weather   Germany   Erkrath   Past weeks
Flag for Germany

Past Weather in Erkrath, North Rhine-Westphalia, Germany — Yesterday and Last 2 Weeks

Currently: 72 °F. Light rain. Passing clouds. (Weather station: Duesseldorf, Germany). See more current weather

Past Weather in Erkrath — Graph

°F

Erkrath Temperature Yesterday

Maximum temperature yesterday: 77 °F (at 3:50 pm)
Minimum temperature yesterday: 55 °F (at 4:50 am)
Average temperature yesterday: 67 °F

High & Low Weather Summary for the Past Weeks

 TemperatureHumidityPressure
High81 °F (Jul 18, 4:20 pm)100% (Jul 10, 3:20 am)30.27 "Hg (Jul 10, 3:20 am)
Low52 °F (Jul 20, 4:20 am)42% (Jul 23, 4:50 pm)29.71 "Hg (Jul 14, 6:50 pm)
Average67 °F77%30.04 "Hg
* Reported Jul 9 1:20 pm — Jul 24 1:50 pm, Erkrath. Weather by CustomWeather, © 2021

Note: Actual official high and low records may vary slightly from our data, if they occured in-between our weather recording intervals... More about our weather records

Erkrath Weather History for the Previous 24 Hours

Scroll right to see more
 ConditionsComfort  
Time TempWeatherWind HumidityBarometerVisibility
1:50 pm
Sat, Jul 24
72 °FSunny.8 mph65%29.80 "Hg10 mi
1:20 pm72 °FSunny.13 mph65%29.80 "Hg10 mi
12:50 pm73 °FPassing clouds.12 mph61%29.80 "HgN/A
12:20 pm73 °FPassing clouds.7 mph65%29.80 "HgN/A
11:50 am72 °FSunny.2 mph69%29.77 "Hg10 mi
11:20 am73 °FPassing clouds.3 mph65%29.77 "HgN/A
10:50 am73 °FSunny.2 mph65%29.77 "Hg10 mi
10:20 am72 °FSunny.2 mph69%29.77 "Hg10 mi
9:50 am70 °FSunny.7 mph73%29.77 "Hg10 mi
9:20 am66 °FSunny.5 mph78%29.80 "Hg10 mi
8:50 am66 °FSunny.5 mph78%29.80 "Hg10 mi
8:20 am64 °FSunny.3 mph83%29.80 "Hg10 mi
7:50 am63 °FSunny.3 mph88%29.80 "Hg10 mi
7:20 am63 °FSunny.2 mph83%29.83 "Hg10 mi
6:50 am61 °FSunny.2 mph88%29.83 "Hg10 mi
6:20 am61 °FSunny.2 mph88%29.83 "Hg10 mi
5:50 am59 °FSunny.6 mph88%29.83 "Hg10 mi
5:20 am59 °FClear.6 mph88%29.83 "Hg10 mi
4:50 am59 °FClear.5 mph88%29.83 "Hg10 mi
4:20 am59 °FClear.5 mph88%29.86 "Hg10 mi
3:50 am59 °FClear.3 mph88%29.86 "Hg10 mi
3:20 am61 °FClear.3 mph83%29.86 "Hg10 mi
1:50 am64 °FClear.3 mph73%29.89 "Hg10 mi
1:20 am64 °FClear.2 mph73%29.89 "Hg10 mi
12:50 am64 °FClear.6 mph78%29.89 "Hg10 mi
12:20 am66 °FClear.8 mph73%29.89 "Hg10 mi
11:50 pm
Fri, Jul 23
66 °FClear.8 mph73%29.92 "Hg10 mi
11:20 pm66 °FClear.7 mph68%29.92 "Hg10 mi
10:50 pm68 °FClear.7 mph60%29.92 "Hg10 mi
10:20 pm68 °FClear.6 mph60%29.92 "Hg10 mi
9:50 pm70 °FClear.7 mph57%29.92 "Hg10 mi
9:20 pm72 °FSunny.8 mph57%29.92 "Hg10 mi
8:50 pm73 °FSunny.7 mph53%29.92 "Hg10 mi
8:20 pm75 °FSunny.7 mph50%29.92 "Hg10 mi
7:50 pm75 °FSunny.7 mph50%29.92 "Hg10 mi
7:20 pm77 °FPassing clouds.6 mph44%29.95 "HgN/A
6:50 pm77 °FPassing clouds.8 mph44%29.95 "HgN/A
6:20 pm77 °FPassing clouds.8 mph44%29.95 "HgN/A
5:50 pm77 °FPassing clouds.7 mph44%29.95 "HgN/A
5:20 pm77 °FPassing clouds.7 mph44%29.98 "HgN/A
4:50 pm77 °FPassing clouds.5 mph42%29.98 "HgN/A
4:20 pm77 °FPassing clouds.5 mph44%29.98 "HgN/A
Weather by CustomWeather, © 2021

See weather overview